Time;durP1;ratioP1;P1;durP2;ratioP2;P2;SDS_P1;SDS_P2;PMS_P1;PMS_P2;Temp;Humidity;BMP_temperature;BMP_pressure;BME280_temperature;BME280_humidity;BME280_pressure;Samples;Min_cycle;Max_cycle;Signal;HPM_P1;HPM_P2
2022/03/16 00:00:21;;;;;;;72.95;38.70;;;5.90;60.60;;;;;;5113114;28;20544;-75
2022/03/16 00:02:48;;;;;;;71.70;40.30;;;5.90;60.60;;;;;;5095370;28;20106;-70
2022/03/16 00:05:14;;;;;;;69.13;37.10;;;5.90;60.60;;;;;;5113785;28;20028;-70
2022/03/16 00:07:40;;;;;;;77.00;38.67;;;6.00;60.60;;;;;;5113776;28;20020;-70
2022/03/16 00:10:07;;;;;;;70.00;37.80;;;6.00;60.80;;;;;;5112554;28;20016;-74
2022/03/16 00:12:34;;;;;;;76.63;39.13;;;6.00;61.00;;;;;;5113974;28;20016;-70
2022/03/16 00:15:00;;;;;;;71.20;39.63;;;6.00;60.70;;;;;;5113731;28;20016;-75
2022/03/16 00:17:25;;;;;;;71.80;39.80;;;6.00;61.00;;;;;;5112406;28;20035;-75
2022/03/16 00:19:51;;;;;;;77.15;39.67;;;6.00;61.50;;;;;;5113775;28;20020;-75
2022/03/16 00:22:17;;;;;;;84.40;46.75;;;5.90;63.10;;;;;;5113454;28;20034;-75
2022/03/16 00:24:42;;;;;;;66.45;36.35;;;5.80;62.90;;;;;;5113521;28;20028;-74
2022/03/16 00:27:08;;;;;;;71.78;38.03;;;5.70;64.40;;;;;;5113398;28;20063;-74
2022/03/16 00:29:34;;;;;;;85.85;42.95;;;5.60;65.00;;;;;;5112246;28;20015;-71
2022/03/16 00:32:00;;;;;;;86.15;45.25;;;5.60;65.40;;;;;;5091539;28;20105;-75
2022/03/16 00:34:26;;;;;;;101.07;48.40;;;5.50;66.30;;;;;;5093179;28;20443;-75
2022/03/16 00:36:51;;;;;;;83.75;45.10;;;5.40;66.30;;;;;;5093047;28;20017;-70
2022/03/16 00:39:17;;;;;;;83.97;43.50;;;5.40;64.90;;;;;;5077084;28;20028;-71
2022/03/16 00:41:42;;;;;;;82.40;43.50;;;5.40;64.60;;;;;;5079028;28;20035;-74
2022/03/16 00:44:08;;;;;;;96.18;57.65;;;5.40;65.00;;;;;;5096933;28;20027;-75
2022/03/16 00:46:34;;;;;;;104.35;56.53;;;5.40;65.80;;;;;;5096805;28;20042;-74
2022/03/16 00:48:59;;;;;;;80.75;41.58;;;5.30;66.40;;;;;;5096960;28;20020;-70
2022/03/16 00:51:25;;;;;;;72.15;38.45;;;5.30;67.30;;;;;;5097080;28;20065;-74
2022/03/16 00:53:51;;;;;;;74.47;40.42;;;5.20;67.50;;;;;;5097004;28;20070;-75
2022/03/16 00:56:17;;;;;;;73.05;37.35;;;5.30;67.70;;;;;;5078766;28;20497;-75
2022/03/16 00:58:42;;;;;;;31.45;21.70;;;5.30;67.30;;;;;;5096875;28;20527;-71
2022/03/16 01:01:08;;;;;;;36.60;20.23;;;5.70;59.30;;;;;;5096582;28;20046;-75
2022/03/16 01:03:34;;;;;;;37.40;18.85;;;6.30;55.50;;;;;;5096615;28;20022;-75
2022/03/16 01:06:00;;;;;;;33.03;19.00;;;6.80;52.20;;;;;;5078240;28;20028;-70
2022/03/16 01:08:26;;;;;;;30.25;18.00;;;7.20;50.50;;;;;;5096631;28;20043;-75
2022/03/16 01:10:52;;;;;;;36.47;20.25;;;7.40;49.90;;;;;;5096536;28;20024;-74
2022/03/16 01:13:17;;;;;;;36.63;19.85;;;7.50;50.40;;;;;;5096484;28;20020;-75
2022/03/16 01:15:43;;;;;;;30.77;17.83;;;7.60;49.70;;;;;;5078569;28;20032;-75
2022/03/16 01:18:09;;;;;;;39.40;19.98;;;7.70;49.50;;;;;;5096506;28;20028;-70
2022/03/16 01:20:34;;;;;;;38.25;19.27;;;7.90;49.60;;;;;;5096524;28;20485;-75
2022/03/16 01:23:01;;;;;;;38.58;21.05;;;7.90;49.50;;;;;;5096316;28;20398;-70
2022/03/16 01:25:26;;;;;;;41.80;22.83;;;8.00;49.50;;;;;;5096288;28;20121;-70
2022/03/16 01:27:52;;;;;;;45.78;25.35;;;7.90;50.00;;;;;;5096296;28;20401;-75
2022/03/16 01:30:18;;;;;;;45.17;26.02;;;7.80;50.60;;;;;;5078119;28;20020;-75
2022/03/16 01:32:44;;;;;;;43.10;24.77;;;7.70;51.40;;;;;;5108344;28;20134;-75
2022/03/16 01:35:10;;;;;;;50.05;27.27;;;7.60;51.60;;;;;;5116432;28;20059;-71
2022/03/16 01:37:37;;;;;;;51.05;28.70;;;7.50;52.10;;;;;;5116543;28;20027;-71
2022/03/16 01:40:04;;;;;;;51.88;26.75;;;7.40;52.80;;;;;;5116381;28;20103;-70
2022/03/16 01:42:30;;;;;;;51.83;29.15;;;7.30;53.50;;;;;;5098090;28;20031;-75
2022/03/16 01:44:57;;;;;;;56.25;29.15;;;7.20;54.30;;;;;;5116245;28;20024;-71
2022/03/16 01:47:24;;;;;;;47.88;26.75;;;7.20;54.60;;;;;;5116337;28;20060;-70
2022/03/16 01:49:53;;;;;;;57.63;27.58;;;7.10;54.80;;;;;;5115371;28;20024;-75
2022/03/16 01:52:21;;;;;;;51.28;26.20;;;7.10;56.00;;;;;;5115934;28;20171;-75
2022/03/16 01:54:47;;;;;;;44.20;24.70;;;7.00;55.60;;;;;;5097854;28;20377;-70
2022/03/16 01:57:15;;;;;;;45.58;24.40;;;7.00;55.90;;;;;;5097691;28;20020;-75
2022/03/16 01:59:41;;;;;;;46.40;25.05;;;7.00;56.10;;;;;;5114915;28;20100;-70
2022/03/16 02:02:08;;;;;;;40.78;23.45;;;7.00;56.20;;;;;;5116049;28;20031;-70
2022/03/16 02:04:34;;;;;;;40.90;23.73;;;7.00;56.50;;;;;;5097967;28;20045;-71
2022/03/16 02:07:00;;;;;;;51.58;24.42;;;6.90;56.80;;;;;;5115846;28;20484;-70
2022/03/16 02:09:26;;;;;;;52.70;25.98;;;6.90;56.90;;;;;;5116031;28;20596;-75
2022/03/16 02:11:52;;;;;;;44.90;24.73;;;6.90;57.10;;;;;;5115873;28;20028;-75
2022/03/16 02:14:17;;;;;;;42.95;22.15;;;6.90;57.40;;;;;;5115845;28;20016;-71
2022/03/16 02:16:44;;;;;;;37.83;21.13;;;6.80;57.60;;;;;;5115738;28;20020;-70
2022/03/16 02:19:10;;;;;;;38.88;19.35;;;6.80;58.60;;;;;;5115626;28;20362;-70
2022/03/16 02:21:37;;;;;;;34.28;18.40;;;6.80;59.20;;;;;;5115560;28;20030;-75
2022/03/16 02:24:04;;;;;;;36.88;21.80;;;6.80;59.50;;;;;;5115540;28;20020;-70
2022/03/16 02:26:30;;;;;;;29.33;16.73;;;6.80;60.10;;;;;;5115389;28;20110;-75
2022/03/16 02:28:57;;;;;;;27.40;17.42;;;6.80;60.50;;;;;;5115343;28;20051;-70
2022/03/16 02:31:24;;;;;;;33.17;22.95;;;6.70;60.70;;;;;;5115195;28;20080;-75
2022/03/16 02:33:50;;;;;;;34.45;20.98;;;6.80;60.80;;;;;;5115450;28;20086;-70
2022/03/16 02:36:15;;;;;;;36.85;20.13;;;6.70;60.60;;;;;;5115395;28;20115;-70
2022/03/16 02:38:41;;;;;;;39.60;23.67;;;6.80;60.50;;;;;;5115387;28;20073;-71
2022/03/16 02:41:06;;;;;;;43.60;24.13;;;6.70;60.20;;;;;;5115165;28;20035;-74
2022/03/16 02:43:32;;;;;;;170.07;152.90;;;6.70;60.40;;;;;;5115270;28;20484;-75
2022/03/16 02:45:58;;;;;;;42.75;29.35;;;6.70;60.60;;;;;;5113832;28;20100;-74
2022/03/16 02:48:23;;;;;;;35.88;21.27;;;6.70;60.40;;;;;;5096794;28;20035;-74
2022/03/16 02:50:49;;;;;;;40.40;21.90;;;6.70;60.00;;;;;;5115018;28;20460;-70
2022/03/16 02:53:15;;;;;;;40.75;21.60;;;6.70;60.00;;;;;;5115005;28;20020;-75
2022/03/16 02:55:44;;;;;;;38.22;21.55;;;6.70;60.10;;;;;;5096666;28;20089;-70
2022/03/16 02:58:10;;;;;;;165.68;124.32;;;6.60;60.20;;;;;;5114977;28;20095;-74
2022/03/16 03:00:36;;;;;;;46.65;31.88;;;6.60;60.50;;;;;;5114832;28;20020;-70
2022/03/16 03:03:02;;;;;;;34.88;18.70;;;6.60;61.40;;;;;;5100477;28;20031;-70
2022/03/16 03:05:27;;;;;;;30.95;18.40;;;6.60;61.90;;;;;;5094337;28;20039;-74
2022/03/16 03:07:53;;;;;;;40.53;25.80;;;6.60;62.20;;;;;;5094449;28;20079;-70
2022/03/16 03:10:18;;;;;;;35.95;23.92;;;6.60;62.70;;;;;;5094354;28;20020;-74
2022/03/16 03:12:44;;;;;;;23.95;17.00;;;6.60;63.30;;;;;;5094382;28;20051;-74
2022/03/16 03:15:13;;;;;;;30.88;18.27;;;6.60;63.90;;;;;;5094317;28;20036;-75
2022/03/16 03:17:39;;;;;;;34.83;20.95;;;6.50;64.70;;;;;;5092973;28;20355;-70
2022/03/16 03:20:05;;;;;;;27.73;16.80;;;6.50;65.30;;;;;;5094096;28;20072;-70
2022/03/16 03:22:31;;;;;;;31.75;22.85;;;6.50;66.00;;;;;;5094107;28;20028;-70
2022/03/16 03:24:57;;;;;;;102.25;92.85;;;6.50;67.20;;;;;;5092651;28;20088;-71
2022/03/16 03:27:24;;;;;;;47.58;42.80;;;6.40;67.70;;;;;;5093988;28;20042;-71
2022/03/16 03:29:49;;;;;;;33.92;28.95;;;6.40;67.90;;;;;;5093903;28;20020;-76
2022/03/16 03:32:15;;;;;;;38.67;34.60;;;6.40;68.40;;;;;;5092560;28;20051;-70
2022/03/16 03:34:46;;;;;;;36.00;23.95;;;6.30;68.80;;;;;;5093986;28;20024;-72
2022/03/16 03:37:12;;;;;;;29.42;24.63;;;6.30;68.30;;;;;;5092634;28;20543;-70
2022/03/16 03:39:38;;;;;;;28.52;20.17;;;6.40;68.70;;;;;;5093832;28;20039;-75
2022/03/16 03:42:04;;;;;;;27.65;18.40;;;6.20;69.00;;;;;;5093605;28;20020;-74
2022/03/16 03:44:29;;;;;;;27.95;19.48;;;6.20;68.60;;;;;;5093821;28;20081;-70
2022/03/16 03:46:55;;;;;;;31.80;19.38;;;6.20;68.30;;;;;;5092264;28;20089;-74
2022/03/16 03:49:21;;;;;;;35.78;19.40;;;6.10;68.80;;;;;;5092264;28;20027;-70
2022/03/16 03:51:46;;;;;;;31.50;19.02;;;6.10;69.40;;;;;;5092482;28;20461;-70
2022/03/16 03:54:12;;;;;;;37.17;20.17;;;6.00;70.10;;;;;;5093963;28;20028;-70
2022/03/16 03:56:37;;;;;;;31.33;19.95;;;6.10;70.20;;;;;;5093698;28;20024;-70
2022/03/16 03:59:03;;;;;;;32.65;20.40;;;6.00;70.20;;;;;;5093558;28;20032;-71
2022/03/16 04:01:28;;;;;;;49.45;23.35;;;6.00;70.40;;;;;;5093502;28;20024;-74
2022/03/16 04:03:54;;;;;;;35.15;21.70;;;6.00;70.80;;;;;;5092239;28;20028;-75
2022/03/16 04:06:20;;;;;;;41.13;23.05;;;5.90;71.40;;;;;;5091839;28;20032;-74
2022/03/16 04:08:45;;;;;;;35.35;22.40;;;5.90;71.60;;;;;;5093427;28;20023;-70
2022/03/16 04:11:11;;;;;;;39.97;25.17;;;5.80;71.50;;;;;;5093205;28;20032;-75
2022/03/16 04:13:37;;;;;;;38.55;24.25;;;5.80;71.60;;;;;;5091367;28;20378;-70
2022/03/16 04:16:03;;;;;;;33.95;21.60;;;5.80;71.40;;;;;;5093194;28;20028;-71
2022/03/16 04:18:29;;;;;;;35.33;23.98;;;5.80;71.50;;;;;;5093459;28;20028;-75
2022/03/16 04:20:55;;;;;;;30.73;20.25;;;5.70;71.70;;;;;;5093262;28;20024;-70
2022/03/16 04:23:21;;;;;;;36.63;23.35;;;5.60;71.70;;;;;;5093339;28;20104;-70
2022/03/16 04:25:46;;;;;;;35.90;25.55;;;5.60;71.90;;;;;;5093112;28;20485;-75
2022/03/16 04:28:12;;;;;;;35.53;24.63;;;5.60;72.20;;;;;;5093263;28;20466;-71
2022/03/16 04:30:38;;;;;;;33.88;23.88;;;5.50;72.80;;;;;;5093340;28;20374;-74
2022/03/16 04:33:04;;;;;;;33.72;21.48;;;5.50;73.30;;;;;;5091648;28;20139;-74
2022/03/16 04:35:30;;;;;;;31.85;22.90;;;5.50;73.50;;;;;;5093127;28;20107;-71
2022/03/16 04:37:55;;;;;;;34.10;25.65;;;5.40;73.60;;;;;;5093157;28;20051;-75
2022/03/16 04:40:21;;;;;;;39.38;26.15;;;5.40;74.10;;;;;;5093032;28;20095;-75
2022/03/16 04:42:47;;;;;;;41.67;25.35;;;5.30;74.10;;;;;;5092969;28;20021;-70
2022/03/16 04:45:13;;;;;;;50.85;29.05;;;5.30;74.90;;;;;;5094807;28;20103;-71
2022/03/16 04:47:39;;;;;;;45.92;29.30;;;5.30;75.90;;;;;;5115600;28;20107;-70
2022/03/16 04:50:05;;;;;;;38.05;25.75;;;5.30;75.60;;;;;;5134021;28;20027;-74
2022/03/16 04:52:32;;;;;;;41.65;25.85;;;5.30;76.30;;;;;;5134080;28;20023;-70
2022/03/16 04:54:57;;;;;;;38.95;26.63;;;5.20;76.20;;;;;;5133709;28;20068;-71
2022/03/16 04:57:23;;;;;;;44.60;27.00;;;5.20;76.50;;;;;;5133885;28;20102;-70
2022/03/16 04:59:48;;;;;;;56.53;35.10;;;5.20;76.90;;;;;;5115440;28;20030;-74
2022/03/16 05:02:14;;;;;;;46.47;33.17;;;5.10;76.20;;;;;;5115348;28;20028;-75
2022/03/16 05:04:39;;;;;;;39.55;26.50;;;5.10;76.00;;;;;;5115562;28;20475;-72
2022/03/16 05:07:05;;;;;;;41.72;24.85;;;5.10;75.60;;;;;;5115341;28;20035;-70
2022/03/16 05:09:31;;;;;;;41.88;25.17;;;5.10;75.00;;;;;;5133876;28;20019;-70
2022/03/16 05:11:56;;;;;;;42.03;24.05;;;5.10;73.80;;;;;;5133592;28;20023;-70
2022/03/16 05:14:22;;;;;;;43.92;25.42;;;5.10;73.30;;;;;;5133659;28;20023;-71
2022/03/16 05:16:48;;;;;;;41.97;23.80;;;5.20;72.30;;;;;;5133574;28;20023;-74
2022/03/16 05:19:13;;;;;;;51.05;27.52;;;5.20;71.30;;;;;;5115142;28;20027;-70
2022/03/16 05:21:39;;;;;;;52.38;28.42;;;5.20;71.50;;;;;;5133336;28;20023;-73
2022/03/16 05:24:05;;;;;;;44.92;25.83;;;5.30;72.10;;;;;;5133494;27;20552;-71
2022/03/16 05:26:31;;;;;;;49.85;26.92;;;5.30;72.00;;;;;;5137134;27;20492;-71
2022/03/16 05:28:57;;;;;;;41.90;25.25;;;5.30;71.40;;;;;;5137405;27;20023;-70
2022/03/16 05:31:22;;;;;;;42.53;24.77;;;5.30;71.50;;;;;;5136889;27;20074;-70
2022/03/16 05:33:49;;;;;;;48.10;24.85;;;5.30;72.20;;;;;;5137406;27;20068;-70
2022/03/16 05:36:14;;;;;;;42.63;26.05;;;5.30;72.30;;;;;;5136992;27;20034;-71
2022/03/16 05:38:40;;;;;;;43.90;25.00;;;5.20;72.60;;;;;;5137099;27;20020;-71
2022/03/16 05:41:05;;;;;;;45.17;28.02;;;5.10;73.10;;;;;;5118559;27;20019;-70
2022/03/16 05:43:31;;;;;;;42.33;26.48;;;5.20;73.40;;;;;;5136822;27;20476;-69
2022/03/16 05:45:57;;;;;;;44.50;26.98;;;5.20;72.80;;;;;;5136677;27;20027;-72
2022/03/16 05:48:22;;;;;;;46.00;28.50;;;5.20;72.10;;;;;;5136930;27;20055;-69
2022/03/16 05:50:48;;;;;;;51.05;27.83;;;5.20;72.30;;;;;;5136848;27;20110;-74
2022/03/16 05:53:14;;;;;;;52.40;29.92;;;5.30;70.70;;;;;;5118403;27;20023;-75
2022/03/16 05:55:41;;;;;;;47.88;28.13;;;5.30;69.90;;;;;;5137074;27;20502;-75
2022/03/16 05:58:07;;;;;;;55.15;30.05;;;5.30;70.00;;;;;;5136633;27;20030;-74
2022/03/16 06:00:32;;;;;;;49.40;27.80;;;5.30;70.00;;;;;;5118045;27;20027;-71
2022/03/16 06:02:58;;;;;;;55.08;30.10;;;5.30;69.50;;;;;;5136456;27;20047;-70
2022/03/16 06:05:25;;;;;;;51.80;30.80;;;5.40;69.10;;;;;;5131690;27;20036;-71
2022/03/16 06:07:50;;;;;;;53.80;31.13;;;5.40;69.10;;;;;;5114949;28;20077;-72
2022/03/16 06:10:17;;;;;;;50.22;27.92;;;5.50;69.00;;;;;;5092489;28;20403;-70
2022/03/16 06:12:56;;;;;;;42.15;26.45;;;5.50;69.00;;;;;;5110893;28;20031;-70
2022/03/16 06:15:25;;;;;;;46.25;26.92;;;5.60;69.20;;;;;;5100946;28;20035;-71
2022/03/16 06:17:56;;;;;;;48.55;27.20;;;5.60;69.20;;;;;;5094409;28;20031;-74
2022/03/16 06:20:23;;;;;;;44.47;25.98;;;5.70;69.50;;;;;;5104240;28;20423;-75
2022/03/16 06:22:48;;;;;;;55.03;29.05;;;5.70;69.30;;;;;;5101576;28;20087;-76
2022/03/16 06:25:14;;;;;;;48.78;28.52;;;5.70;69.70;;;;;;5096551;28;20020;-70
2022/03/16 06:27:40;;;;;;;47.65;26.77;;;5.70;70.00;;;;;;5096089;28;20122;-69
2022/03/16 06:30:06;;;;;;;49.97;28.42;;;5.70;69.80;;;;;;5113427;28;20026;-70
2022/03/16 06:32:32;;;;;;;51.63;28.50;;;5.80;70.00;;;;;;5113443;28;20044;-70
2022/03/16 06:34:58;;;;;;;70.78;36.08;;;5.80;69.80;;;;;;5114371;28;20030;-69
2022/03/16 06:37:23;;;;;;;74.57;39.85;;;5.80;70.10;;;;;;5104292;28;20032;-74
2022/03/16 06:39:49;;;;;;;67.45;34.13;;;5.80;70.50;;;;;;5094116;28;20027;-75
2022/03/16 06:42:14;;;;;;;269.60;116.10;;;5.90;71.00;;;;;;5075483;28;20420;-74
2022/03/16 06:44:40;;;;;;;285.83;121.05;;;5.90;70.90;;;;;;5093186;28;20034;-69
2022/03/16 06:47:05;;;;;;;150.85;72.20;;;6.00;70.80;;;;;;5092988;28;20036;-69
2022/03/16 06:49:31;;;;;;;79.70;50.67;;;6.00;70.70;;;;;;5093493;28;20095;-75
2022/03/16 06:51:57;;;;;;;86.32;48.05;;;6.10;70.40;;;;;;5094417;28;20095;-75
2022/03/16 06:54:22;;;;;;;212.07;97.35;;;6.10;69.70;;;;;;5075007;28;20036;-70
2022/03/16 06:56:49;;;;;;;188.50;87.50;;;6.20;69.80;;;;;;5093619;28;20028;-70
2022/03/16 06:59:15;;;;;;;152.82;69.18;;;6.20;69.20;;;;;;5057027;28;20638;-69
2022/03/16 07:01:41;;;;;;;63.95;33.17;;;6.20;68.80;;;;;;5073770;28;20023;-69
2022/03/16 07:04:07;;;;;;;267.70;113.22;;;6.20;66.70;;;;;;5091988;28;20024;-70
2022/03/16 07:06:33;;;;;;;59.78;30.20;;;6.20;66.60;;;;;;5091237;28;20034;-74
2022/03/16 07:08:58;;;;;;;55.55;31.52;;;6.10;67.20;;;;;;5091966;28;20020;-70
2022/03/16 07:11:24;;;;;;;51.40;29.95;;;6.00;64.60;;;;;;5091908;28;20025;-75
2022/03/16 07:16:34;;;;;;;54.58;29.70;;;5.90;63.10;;;;;;5093706;28;20038;-69
2022/03/16 07:19:01;;;;;;;51.08;31.02;;;5.80;63.20;;;;;;5092670;28;20024;-70
2022/03/16 07:21:26;;;;;;;57.88;32.00;;;5.70;63.70;;;;;;5088708;28;20021;-75
2022/03/16 07:23:52;;;;;;;59.13;30.33;;;5.60;63.90;;;;;;5073700;28;20027;-75
2022/03/16 07:26:18;;;;;;;51.60;31.40;;;5.50;63.70;;;;;;5092807;28;20028;-74
2022/03/16 07:28:43;;;;;;;58.63;32.00;;;5.50;63.90;;;;;;5074888;28;20031;-74
2022/03/16 07:31:09;;;;;;;57.05;31.38;;;5.60;63.50;;;;;;5092856;28;20028;-75
2022/03/16 07:33:35;;;;;;;50.55;30.08;;;5.60;63.70;;;;;;5093116;28;20048;-74
2022/03/16 07:36:02;;;;;;;56.53;29.95;;;5.70;63.40;;;;;;5093709;28;20149;-74
2022/03/16 07:38:27;;;;;;;49.65;30.10;;;5.70;62.80;;;;;;5094059;28;20012;-74
2022/03/16 07:40:53;;;;;;;51.45;29.65;;;5.60;62.70;;;;;;5093877;28;20024;-74
2022/03/16 07:43:18;;;;;;;50.80;27.85;;;5.70;63.10;;;;;;5075795;28;20032;-74
2022/03/16 07:45:44;;;;;;;49.50;28.25;;;5.70;62.90;;;;;;5075685;28;20028;-74
2022/03/16 07:48:09;;;;;;;53.72;27.70;;;5.70;62.70;;;;;;5092902;28;20036;-74
2022/03/16 07:50:35;;;;;;;58.10;34.53;;;5.70;62.30;;;;;;5093744;28;20024;-74
2022/03/16 07:53:01;;;;;;;60.42;32.90;;;5.60;61.90;;;;;;5093654;28;20020;-69
2022/03/16 07:55:27;;;;;;;52.72;28.38;;;5.70;62.60;;;;;;5093871;28;20456;-70
2022/03/16 07:57:54;;;;;;;53.13;28.58;;;5.80;62.90;;;;;;5093561;28;20081;-70
2022/03/16 08:00:20;;;;;;;47.85;28.30;;;5.80;62.90;;;;;;5075500;28;20477;-70
2022/03/16 08:02:46;;;;;;;59.67;32.53;;;5.80;62.40;;;;;;5093594;28;20024;-74
2022/03/16 08:05:13;;;;;;;54.83;30.15;;;5.70;62.60;;;;;;5092498;28;20016;-75
2022/03/16 08:07:39;;;;;;;48.95;29.40;;;5.60;63.80;;;;;;5095247;28;20507;-75
2022/03/16 08:10:05;;;;;;;54.25;32.58;;;5.60;65.40;;;;;;5092468;28;20055;-75
2022/03/16 08:12:31;;;;;;;53.30;32.78;;;5.60;65.80;;;;;;5092290;28;20028;-75
2022/03/16 08:14:57;;;;;;;48.08;29.17;;;5.60;66.70;;;;;;5074525;28;20031;-75
2022/03/16 08:17:23;;;;;;;48.90;26.55;;;5.60;66.50;;;;;;5092528;28;20047;-69
2022/03/16 08:19:49;;;;;;;51.35;29.65;;;5.60;64.70;;;;;;5092530;28;20021;-70
2022/03/16 08:22:44;;;;;;;47.30;27.70;;;5.60;64.70;;;;;;5092687;28;20111;-74
2022/03/16 08:25:12;;;;;;;49.70;27.67;;;5.60;63.70;;;;;;5079605;28;20040;-70
2022/03/16 08:27:39;;;;;;;50.00;28.40;;;5.60;64.00;;;;;;5093164;28;20028;-74
2022/03/16 08:30:06;;;;;;;45.65;26.30;;;5.70;64.10;;;;;;5093185;28;20048;-69
2022/03/16 08:32:32;;;;;;;48.88;26.48;;;5.70;62.30;;;;;;5103709;28;20108;-74
2022/03/16 08:34:57;;;;;;;47.97;27.58;;;5.80;62.60;;;;;;5113263;28;20020;-73
2022/03/16 08:37:24;;;;;;;48.35;27.88;;;6.00;62.40;;;;;;5113677;28;20024;-70
2022/03/16 08:39:49;;;;;;;49.05;27.65;;;6.10;62.40;;;;;;5113768;28;20571;-73
2022/03/16 08:42:16;;;;;;;44.22;27.27;;;6.30;61.80;;;;;;5113652;28;20028;-71
2022/03/16 08:44:43;;;;;;;50.88;26.67;;;6.50;60.70;;;;;;5113785;28;20091;-73
2022/03/16 08:47:10;;;;;;;48.15;25.83;;;6.70;60.50;;;;;;5095251;28;20028;-70
2022/03/16 08:49:37;;;;;;;46.83;27.42;;;6.80;59.50;;;;;;5113726;28;20103;-74
2022/03/16 08:52:04;;;;;;;50.97;27.20;;;6.90;59.20;;;;;;5112758;28;20023;-74
2022/03/16 08:54:30;;;;;;;44.45;26.48;;;7.10;58.70;;;;;;5111506;28;20520;-76
2022/03/16 08:56:55;;;;;;;47.70;25.52;;;7.30;57.80;;;;;;5111331;28;20024;-72
2022/03/16 08:59:22;;;;;;;40.67;25.30;;;7.50;58.10;;;;;;5111897;28;20099;-76
2022/03/16 09:01:49;;;;;;;41.70;23.65;;;7.70;57.00;;;;;;5113975;28;20020;-72
2022/03/16 09:04:15;;;;;;;40.90;24.52;;;7.80;56.10;;;;;;5115277;28;20038;-72
2022/03/16 09:06:40;;;;;;;30.77;21.67;;;7.90;55.50;;;;;;5115211;28;20043;-76
2022/03/16 09:09:06;;;;;;;33.55;21.40;;;8.00;53.80;;;;;;5117168;28;20027;-72
2022/03/16 09:11:32;;;;;;;41.25;23.50;;;8.00;51.90;;;;;;5098855;28;20018;-76
2022/03/16 09:13:57;;;;;;;36.25;22.05;;;8.00;52.40;;;;;;5098842;28;20107;-76
2022/03/16 09:16:23;;;;;;;35.50;22.40;;;8.10;52.40;;;;;;5115863;28;20018;-76
2022/03/16 09:18:49;;;;;;;40.55;22.13;;;7.90;51.40;;;;;;5117164;28;20062;-76
2022/03/16 09:21:15;;;;;;;34.80;20.63;;;8.10;51.20;;;;;;5098786;28;20378;-76
2022/03/16 09:23:41;;;;;;;36.30;21.45;;;8.10;50.40;;;;;;5117093;28;20022;-72
2022/03/16 09:26:07;;;;;;;38.47;22.30;;;8.40;50.00;;;;;;5116647;28;20040;-72
2022/03/16 09:28:33;;;;;;;32.88;22.15;;;8.50;49.60;;;;;;5098703;28;20026;-76
2022/03/16 09:30:58;;;;;;;31.95;20.98;;;8.50;49.60;;;;;;5116830;28;20020;-72
2022/03/16 09:33:24;;;;;;;40.70;23.35;;;8.70;49.60;;;;;;5116847;28;20168;-75
2022/03/16 09:35:51;;;;;;;36.47;21.23;;;8.60;49.60;;;;;;5115468;28;20473;-72
2022/03/16 09:38:18;;;;;;;35.60;21.25;;;8.70;49.40;;;;;;5098368;28;20030;-72
2022/03/16 09:40:43;;;;;;;33.50;22.35;;;8.80;49.40;;;;;;5098254;28;20118;-72
2022/03/16 09:43:13;;;;;;;35.20;22.80;;;9.00;49.50;;;;;;5116673;28;20048;-72
2022/03/16 09:46:07;;;;;;;36.95;21.95;;;9.30;50.40;;;;;;5116689;28;20032;-71
2022/03/16 09:48:33;;;;;;;46.67;27.17;;;9.20;49.50;;;;;;5114500;28;20479;-75
2022/03/16 09:50:58;;;;;;;39.63;23.63;;;9.20;49.90;;;;;;5116517;28;20100;-72
2022/03/16 09:53:26;;;;;;;39.17;22.45;;;9.30;49.90;;;;;;5115199;28;20101;-76
2022/03/16 09:55:53;;;;;;;39.53;24.02;;;9.30;49.00;;;;;;5116438;28;20027;-76
2022/03/16 09:58:22;;;;;;;36.33;23.50;;;9.50;49.10;;;;;;5116377;28;20119;-76
2022/03/16 10:00:48;;;;;;;33.25;23.08;;;9.50;49.40;;;;;;5116322;28;20069;-76
2022/03/16 10:03:15;;;;;;;35.55;22.33;;;9.50;49.10;;;;;;5097983;28;20034;-76
2022/03/16 10:05:44;;;;;;;40.47;24.27;;;9.60;49.70;;;;;;5116097;28;20032;-72
2022/03/16 10:08:10;;;;;;;36.30;22.30;;;9.70;49.00;;;;;;5116159;28;20016;-76
2022/03/16 10:13:22;;;;;;;31.15;18.98;;;9.80;47.60;;;;;;5116378;28;20031;-76
2022/03/16 10:15:49;;;;;;;35.83;20.42;;;10.00;46.70;;;;;;5114759;28;20469;-76
2022/03/16 10:18:16;;;;;;;31.10;21.05;;;10.00;45.70;;;;;;5115934;28;20103;-76
2022/03/16 10:20:43;;;;;;;32.17;21.90;;;10.00;46.00;;;;;;5116011;28;20481;-71
2022/03/16 10:23:14;;;;;;;32.25;20.45;;;10.10;46.20;;;;;;5115784;28;20020;-76
2022/03/16 10:25:52;;;;;;;37.00;22.52;;;10.30;46.00;;;;;;5115818;28;20031;-76
2022/03/16 10:28:26;;;;;;;32.47;20.77;;;10.30;45.70;;;;;;5115856;28;20111;-76
2022/03/16 10:30:56;;;;;;;25.92;17.63;;;10.40;45.30;;;;;;5115706;28;20094;-77
2022/03/16 10:33:26;;;;;;;27.75;18.55;;;10.60;44.80;;;;;;5097531;28;20127;-75
2022/03/16 10:36:05;;;;;;;28.02;17.42;;;10.80;44.90;;;;;;5115516;28;20043;-73
2022/03/16 10:38:37;;;;;;;29.33;18.25;;;10.80;43.40;;;;;;5114382;28;20020;-76
2022/03/16 10:46:34;;;;;;;28.70;18.23;;;10.90;42.80;;;;;;5115587;28;20024;-72
2022/03/16 10:46:46;;;;;;;28.20;18.40;;;10.80;42.90;;;;;;5103047;28;20448;-73
2022/03/16 10:49:16;;;;;;;27.90;18.13;;;10.90;42.90;;;;;;5093698;28;20024;-73
2022/03/16 10:51:45;;;;;;;28.23;18.75;;;11.00;42.50;;;;;;5095025;28;20044;-76
2022/03/16 10:54:14;;;;;;;30.23;18.63;;;11.20;42.70;;;;;;5094919;28;20071;-74
2022/03/16 10:56:40;;;;;;;31.42;17.85;;;11.20;42.60;;;;;;5094876;28;20024;-70
2022/03/16 10:59:07;;;;;;;26.88;18.00;;;11.00;42.70;;;;;;5094821;28;20381;-74
2022/03/16 11:01:38;;;;;;;25.55;15.88;;;11.10;42.70;;;;;;5094845;28;20028;-74
2022/03/16 11:04:04;;;;;;;24.48;15.75;;;11.10;42.20;;;;;;5093471;28;20063;-74
2022/03/16 11:06:31;;;;;;;28.00;16.80;;;11.20;42.00;;;;;;5094577;28;20075;-71
2022/03/16 11:08:57;;;;;;;27.23;16.48;;;11.30;42.10;;;;;;5093368;28;20027;-71
2022/03/16 11:14:08;;;;;;;20.75;14.40;;;11.30;42.60;;;;;;5094578;28;20031;-74
2022/03/16 11:16:34;;;;;;;26.27;15.98;;;11.30;42.70;;;;;;5094518;28;20381;-70
2022/03/16 11:19:05;;;;;;;19.92;13.70;;;11.60;42.80;;;;;;5094444;28;20113;-75
2022/03/16 11:21:48;;;;;;;23.75;16.02;;;11.70;42.30;;;;;;5111109;27;20026;-70
2022/03/16 11:24:24;;;;;;;23.95;16.67;;;11.70;42.50;;;;;;5134766;27;20456;-70
2022/03/16 11:27:11;;;;;;;19.90;13.85;;;11.70;43.30;;;;;;5116542;27;20038;-75
2022/03/16 11:29:52;;;;;;;20.77;14.82;;;11.60;43.20;;;;;;5116751;27;20026;-71
2022/03/16 11:32:19;;;;;;;22.75;14.70;;;11.70;43.40;;;;;;5134930;27;20035;-74
2022/03/16 11:34:59;;;;;;;20.73;13.05;;;11.80;43.50;;;;;;5135042;27;20023;-71
2022/03/16 11:37:39;;;;;;;22.30;14.95;;;11.90;44.20;;;;;;5135092;27;20357;-74
2022/03/16 11:40:12;;;;;;;23.70;13.73;;;11.80;44.00;;;;;;5135006;27;20066;-75
2022/03/16 11:42:59;;;;;;;18.65;13.50;;;11.70;44.40;;;;;;5135108;27;20019;-70
2022/03/16 11:45:54;;;;;;;20.60;13.88;;;11.60;45.10;;;;;;5121287;27;20072;-71
2022/03/16 11:48:31;;;;;;;23.48;14.27;;;11.20;45.70;;;;;;5134582;27;20016;-71
2022/03/16 11:56:31;;;;;;;18.52;12.35;;;11.10;46.10;;;;;;5135194;27;20038;-70
2022/03/16 11:59:02;;;;;;;23.30;13.95;;;10.90;46.60;;;;;;5116268;27;20106;-70
2022/03/16 12:01:33;;;;;;;21.70;13.55;;;10.80;47.10;;;;;;5134758;27;20051;-74
2022/03/16 12:04:15;;;;;;;25.20;13.85;;;10.90;47.40;;;;;;5134522;27;20054;-71
2022/03/16 12:07:05;;;;;;;23.15;13.80;;;10.90;47.70;;;;;;5115910;27;20118;-75
2022/03/16 12:09:49;;;;;;;21.23;13.18;;;10.80;47.70;;;;;;5134731;27;20030;-74
2022/03/16 12:15:05;;;;;;;22.45;14.05;;;11.00;48.40;;;;;;5134542;27;20488;-72
2022/03/16 12:17:32;;;;;;;20.35;13.15;;;11.00;48.30;;;;;;5116314;28;20428;-70
2022/03/16 12:20:23;;;;;;;18.85;12.02;;;11.10;48.50;;;;;;5134260;28;20024;-71
2022/03/16 12:22:55;;;;;;;18.92;11.43;;;11.10;48.10;;;;;;5134476;27;20037;-71
2022/03/16 12:25:26;;;;;;;16.52;11.95;;;11.00;48.00;;;;;;5134232;28;20434;-75
2022/03/16 12:30:59;;;;;;;19.65;12.10;;;10.90;48.30;;;;;;5134667;28;20034;-71
2022/03/16 12:33:30;;;;;;;21.63;12.85;;;11.00;47.70;;;;;;5134415;27;20103;-71
2022/03/16 12:36:12;;;;;;;16.25;11.63;;;11.00;47.50;;;;;;5137751;27;20026;-75
2022/03/16 12:38:41;;;;;;;18.52;11.73;;;11.10;46.60;;;;;;5138574;27;20384;-75
2022/03/16 12:43:58;;;;;;;17.58;12.75;;;11.00;47.50;;;;;;5138453;27;20507;-74
2022/03/16 12:46:28;;;;;;;21.05;13.68;;;11.20;48.10;;;;;;5119844;27;20118;-75
2022/03/16 12:49:19;;;;;;;27.88;14.48;;;11.40;48.80;;;;;;5119886;27;20069;-71
2022/03/16 12:51:59;;;;;;;21.67;15.30;;;11.40;47.70;;;;;;5137512;27;20283;-71
2022/03/16 12:54:26;;;;;;;21.35;15.10;;;11.30;47.60;;;;;;5138129;27;20023;-75
2022/03/16 12:56:55;;;;;;;25.80;15.70;;;11.30;46.60;;;;;;5137911;27;20024;-74
2022/03/16 12:59:32;;;;;;;25.10;17.05;;;11.40;46.80;;;;;;5119671;27;20023;-75